Time;durP1;ratioP1;P1;durP2;ratioP2;P2;SDS_P1;SDS_P2;PMS_P1;PMS_P2;Temp;Humidity;BMP_temperature;BMP_pressure;BME280_temperature;BME280_humidity;BME280_pressure;Samples;Min_cycle;Max_cycle;Signal;HPM_P1;HPM_P2
2021/03/28 00:02:05;;;;;;;14.70;4.20;;;7.30;77.50;;;;;;5059720;28;20515;-83
2021/03/28 00:04:47;;;;;;;16.20;4.47;;;7.30;77.20;;;;;;5059047;28;20017;-82
2021/03/28 00:07:14;;;;;;;11.37;3.70;;;7.30;77.90;;;;;;5077695;28;20031;-82
2021/03/28 00:09:44;;;;;;;17.47;4.03;;;7.30;77.40;;;;;;5075354;28;20167;-83
2021/03/28 00:12:19;;;;;;;14.37;4.10;;;7.40;77.40;;;;;;5059319;28;20039;-82
2021/03/28 00:15:03;;;;;;;10.53;3.53;;;7.40;78.00;;;;;;5059345;28;20111;-83
2021/03/28 00:17:45;;;;;;;16.07;3.53;;;7.40;78.00;;;;;;5077275;28;20028;-82
2021/03/28 00:20:16;;;;;;;11.20;4.37;;;7.40;77.70;;;;;;5076817;28;20046;-81
2021/03/28 00:22:52;;;;;;;13.77;4.10;;;7.50;78.30;;;;;;5059058;28;20024;-82
2021/03/28 00:25:42;;;;;;;11.47;3.63;;;7.50;78.40;;;;;;5058810;28;20032;-82
2021/03/28 00:28:20;;;;;;;16.27;4.30;;;7.50;78.60;;;;;;5077076;28;20016;-82
2021/03/28 00:30:48;;;;;;;15.23;4.20;;;7.50;78.80;;;;;;5076361;28;20048;-82
2021/03/28 00:33:24;;;;;;;13.37;3.37;;;7.50;78.90;;;;;;5058522;28;20492;-83
2021/03/28 00:35:59;;;;;;;12.97;3.27;;;7.50;79.10;;;;;;5076676;28;20029;-81
2021/03/28 00:38:52;;;;;;;15.43;3.27;;;7.50;79.50;;;;;;5057198;28;20389;-82
2021/03/28 00:41:59;;;;;;;17.07;3.97;;;7.50;79.70;;;;;;5056093;28;20025;-82
2021/03/28 00:44:25;;;;;;;11.63;3.30;;;7.50;79.90;;;;;;5073681;28;20047;-82
2021/03/28 00:46:51;;;;;;;16.07;3.60;;;7.50;80.20;;;;;;5056657;28;20035;-82
2021/03/28 00:49:25;;;;;;;13.83;3.43;;;7.50;80.40;;;;;;5056320;28;20024;-82
2021/03/28 00:51:58;;;;;;;14.63;3.10;;;7.50;80.20;;;;;;5057594;28;20088;-82
2021/03/28 00:55:14;;;;;;;17.63;3.23;;;7.50;81.20;;;;;;5057511;28;20382;-82
2021/03/28 00:57:43;;;;;;;15.17;3.33;;;7.50;80.70;;;;;;5016681;28;20025;-81
2021/03/28 01:00:34;;;;;;;;;;;7.60;80.90;;;;;;5017032;28;20031;-82
2021/03/28 01:03:20;;;;;;;12.60;3.10;;;7.60;81.10;;;;;;5048913;28;19930;-82
2021/03/28 01:05:49;;;;;;;12.83;3.03;;;7.60;81.30;;;;;;5059281;28;20556;-81
2021/03/28 01:08:23;;;;;;;13.80;3.67;;;7.50;81.40;;;;;;5058659;28;20401;-82
2021/03/28 01:11:07;;;;;;;16.00;4.00;;;7.50;81.80;;;;;;5072850;28;20591;-82
2021/03/28 01:13:57;;;;;;;14.07;2.97;;;7.50;81.90;;;;;;5055555;28;20029;-83
2021/03/28 01:16:35;;;;;;;16.40;3.43;;;7.50;81.70;;;;;;5054332;28;20167;-83
2021/03/28 01:19:28;;;;;;;18.30;3.00;;;7.50;81.70;;;;;;5053831;28;20021;-83
2021/03/28 01:22:04;;;;;;;14.37;3.10;;;7.50;81.80;;;;;;5054275;28;20025;-82
2021/03/28 01:24:51;;;;;;;11.10;2.80;;;7.50;81.90;;;;;;5071829;28;20031;-83
2021/03/28 01:27:33;;;;;;;15.23;3.20;;;7.50;82.00;;;;;;5060323;23;20148;-84
2021/03/28 01:29:58;;;;;;;14.43;3.20;;;7.50;81.80;;;;;;5032399;28;20028;-84
2021/03/28 01:32:29;;;;;;;15.87;3.40;;;7.50;82.00;;;;;;5032205;28;20018;-85
2021/03/28 01:35:10;;;;;;;11.87;2.77;;;7.40;81.90;;;;;;5032671;28;20094;-84
2021/03/28 01:37:48;;;;;;;15.37;2.93;;;7.50;81.70;;;;;;5034992;28;20060;-85
2021/03/28 01:40:24;;;;;;;16.40;3.45;;;7.50;81.80;;;;;;5035471;28;20026;-86
2021/03/28 01:42:55;;;;;;;6.97;2.60;;;7.50;81.90;;;;;;5034858;28;20029;-84
2021/03/28 01:45:45;;;;;;;11.67;2.83;;;7.50;82.00;;;;;;5036250;28;20474;-84
2021/03/28 01:48:31;;;;;;;14.00;2.67;;;7.50;82.10;;;;;;5035385;28;20030;-84
2021/03/28 01:50:57;;;;;;;13.00;2.90;;;7.50;82.00;;;;;;5037016;28;20028;-84
2021/03/28 01:53:37;;;;;;;12.97;3.20;;;7.50;82.00;;;;;;5035765;28;20038;-84
2021/03/28 01:56:07;;;;;;;13.80;3.37;;;7.50;82.10;;;;;;5036097;28;20032;-84
2021/03/28 01:58:47;;;;;;;11.23;2.80;;;7.50;82.20;;;;;;5035237;28;20021;-84
2021/03/28 02:01:36;;;;;;;9.57;3.00;;;7.50;82.40;;;;;;5033539;28;20025;-84
2021/03/28 02:04:33;;;;;;;13.98;3.28;;;7.50;82.50;;;;;;5032851;28;20101;-84
2021/03/28 02:07:04;;;;;;;14.57;3.60;;;7.50;82.30;;;;;;5031514;28;20040;-84
2021/03/28 02:09:39;;;;;;;14.50;3.50;;;7.50;82.60;;;;;;5032069;28;20038;-84
2021/03/28 02:12:05;;;;;;;11.30;3.50;;;7.60;82.50;;;;;;5031252;28;20042;-84
2021/03/28 02:14:50;;;;;;;13.97;3.40;;;7.50;82.30;;;;;;5032691;28;20048;-87
2021/03/28 02:17:49;;;;;;;10.27;3.33;;;7.50;82.60;;;;;;5031094;28;20033;-84
2021/03/28 02:20:45;;;;;;;15.85;3.20;;;7.60;82.70;;;;;;5031552;28;20030;-84
2021/03/28 02:23:27;;;;;;;12.43;3.50;;;7.60;82.60;;;;;;5031033;28;20018;-85
2021/03/28 02:26:04;;;;;;;13.67;3.50;;;7.60;82.80;;;;;;5032358;28;20024;-84
2021/03/28 02:28:47;;;;;;;10.10;3.40;;;7.50;83.10;;;;;;5032038;28;20029;-84
2021/03/28 02:31:45;;;;;;;11.83;3.00;;;7.50;83.40;;;;;;5030730;28;20028;-85
2021/03/28 02:34:26;;;;;;;15.70;3.20;;;7.50;83.70;;;;;;5032234;28;20100;-85
2021/03/28 02:37:13;;;;;;;11.53;2.90;;;7.50;83.50;;;;;;5034226;28;20025;-84
2021/03/28 02:39:47;;;;;;;12.50;3.13;;;7.50;83.50;;;;;;5034469;28;20125;-85
2021/03/28 02:42:47;;;;;;;13.07;3.23;;;7.60;83.80;;;;;;5035617;28;20482;-85
2021/03/28 02:45:25;;;;;;;13.27;3.07;;;7.50;83.90;;;;;;5034402;28;20572;-84
2021/03/28 02:48:29;;;;;;;13.00;2.87;;;7.50;84.00;;;;;;5034189;28;20390;-84
2021/03/28 02:51:10;;;;;;;10.90;3.00;;;7.50;84.10;;;;;;5006569;28;20494;-84
2021/03/28 02:54:08;;;;;;;12.07;2.97;;;7.60;83.90;;;;;;5034529;28;20026;-85
2021/03/28 02:57:12;;;;;;;13.40;2.87;;;7.60;84.10;;;;;;5033733;28;20128;-86
2021/03/28 03:00:02;;;;;;;12.80;3.03;;;7.60;84.10;;;;;;5034415;28;20421;-85
2021/03/28 03:02:55;;;;;;;12.07;2.50;;;7.60;84.30;;;;;;5034016;28;20486;-84
2021/03/28 03:05:43;;;;;;;9.43;2.73;;;7.60;84.30;;;;;;5034071;28;20030;-84
2021/03/28 03:08:39;;;;;;;14.33;2.70;;;7.60;84.20;;;;;;5033634;28;20033;-84
2021/03/28 03:11:21;;;;;;;9.27;2.90;;;7.60;84.30;;;;;;5033812;28;20029;-84
2021/03/28 03:14:13;;;;;;;15.17;2.70;;;7.60;84.40;;;;;;5033905;28;20079;-84
2021/03/28 03:16:58;;;;;;;13.73;2.93;;;7.60;84.50;;;;;;5033474;28;20513;-84
2021/03/28 03:19:51;;;;;;;8.23;2.40;;;7.50;84.50;;;;;;5035037;28;20075;-84
2021/03/28 03:22:22;;;;;;;7.47;2.23;;;7.60;84.60;;;;;;5050394;28;20108;-85
2021/03/28 03:25:18;;;;;;;11.37;2.97;;;7.60;84.50;;;;;;5033695;28;20083;-84
2021/03/28 03:28:08;;;;;;;10.60;2.23;;;7.60;84.70;;;;;;5033385;28;20110;-84
2021/03/28 03:30:56;;;;;;;11.80;2.60;;;7.60;84.80;;;;;;5033568;28;20030;-84
2021/03/28 03:33:45;;;;;;;11.80;2.73;;;7.60;84.80;;;;;;5033501;28;20116;-85
2021/03/28 03:36:31;;;;;;;10.98;2.47;;;7.60;85.40;;;;;;5032861;28;20080;-85
2021/03/28 03:39:14;;;;;;;9.77;2.50;;;7.60;84.70;;;;;;5033406;28;20064;-85
2021/03/28 03:41:52;;;;;;;8.30;2.20;;;7.60;84.90;;;;;;5034685;28;20481;-85
2021/03/28 03:44:30;;;;;;;12.97;3.47;;;7.60;85.10;;;;;;5033360;28;20061;-84
2021/03/28 03:47:23;;;;;;;10.67;2.53;;;7.60;85.10;;;;;;5034081;28;20393;-84
2021/03/28 03:50:45;;;;;;;12.27;2.50;;;7.60;85.20;;;;;;5033152;28;20512;-85
2021/03/28 03:53:47;;;;;;;11.73;2.77;;;7.60;85.30;;;;;;5005458;28;20037;-85
2021/03/28 03:56:24;;;;;;;11.37;2.33;;;7.50;85.30;;;;;;5032989;28;20029;-84
2021/03/28 03:59:06;;;;;;;12.17;2.23;;;7.50;85.30;;;;;;5032862;28;20393;-85
2021/03/28 04:02:00;;;;;;;10.83;2.73;;;7.60;85.20;;;;;;5032898;28;20032;-84
2021/03/28 04:04:50;;;;;;;9.57;2.20;;;7.60;85.20;;;;;;5032804;28;20498;-84
2021/03/28 04:07:54;;;;;;;9.73;2.13;;;7.60;84.90;;;;;;5032796;28;20025;-84
2021/03/28 04:10:28;;;;;;;7.17;2.23;;;7.60;84.90;;;;;;5011288;28;20132;-84
2021/03/28 04:13:16;;;;;;;8.47;2.33;;;7.70;85.10;;;;;;5032697;28;20128;-84
2021/03/28 04:16:08;;;;;;;9.40;2.10;;;7.60;85.30;;;;;;5033906;28;20028;-85
2021/03/28 04:18:52;;;;;;;11.33;2.40;;;7.60;85.30;;;;;;5032552;28;20021;-84
2021/03/28 04:21:37;;;;;;;13.93;2.43;;;7.60;84.80;;;;;;5033692;28;20057;-84
2021/03/28 04:24:15;;;;;;;10.67;2.43;;;7.60;85.00;;;;;;5032502;28;20048;-84
2021/03/28 04:27:07;;;;;;;13.38;2.70;;;7.60;85.10;;;;;;5032262;28;20063;-84
2021/03/28 04:29:33;;;;;;;14.87;2.60;;;7.60;85.00;;;;;;5032652;28;20033;-84
2021/03/28 04:32:17;;;;;;;10.57;2.40;;;7.60;84.90;;;;;;5032494;28;20034;-84
2021/03/28 04:35:16;;;;;;;12.00;2.57;;;7.60;85.10;;;;;;5033540;28;20025;-84
2021/03/28 04:38:36;;;;;;;9.30;2.17;;;7.60;85.10;;;;;;5032228;28;20042;-84
2021/03/28 04:41:30;;;;;;;8.63;2.17;;;7.60;85.20;;;;;;4975651;28;20423;-84
2021/03/28 04:44:26;;;;;;;7.20;2.03;;;7.60;85.10;;;;;;5033640;28;20545;-84
2021/03/28 04:47:31;;;;;;;15.23;2.73;;;7.60;85.10;;;;;;5032060;28;20034;-84
2021/03/28 04:49:59;;;;;;;9.13;2.00;;;7.60;84.90;;;;;;5032194;28;20075;-85
2021/03/28 04:52:30;;;;;;;10.37;2.00;;;7.60;85.00;;;;;;5033379;28;20025;-84
2021/03/28 04:55:08;;;;;;;14.20;2.57;;;7.60;84.80;;;;;;5032081;28;20036;-85
2021/03/28 04:57:42;;;;;;;10.87;2.00;;;7.60;84.80;;;;;;5031051;28;20029;-84
2021/03/28 05:01:02;;;;;;;9.87;2.03;;;7.60;85.10;;;;;;5031884;28;20017;-84
2021/03/28 05:04:06;;;;;;;6.23;2.00;;;7.60;85.20;;;;;;4991515;28;20026;-84
2021/03/28 05:07:09;;;;;;;6.67;1.90;;;7.70;85.30;;;;;;4952602;29;20027;-84
2021/03/28 05:09:56;;;;;;;10.67;2.17;;;7.60;84.90;;;;;;4952791;29;20042;-86
2021/03/28 05:12:46;;;;;;;4.93;1.90;;;7.60;85.20;;;;;;5018346;28;20433;-85
2021/03/28 05:15:25;;;;;;;9.30;2.10;;;7.60;85.30;;;;;;5031812;28;20121;-85
2021/03/28 05:18:48;;;;;;;9.37;2.30;;;7.60;85.50;;;;;;5031648;28;20026;-85
2021/03/28 05:21:22;;;;;;;10.33;2.30;;;7.60;85.40;;;;;;4991407;28;20566;-84
2021/03/28 05:24:25;;;;;;;11.83;2.20;;;7.60;85.50;;;;;;4991505;28;20058;-84
2021/03/28 05:27:21;;;;;;;10.37;2.20;;;7.60;85.70;;;;;;5042091;28;20042;-84
2021/03/28 05:30:20;;;;;;;11.30;2.40;;;7.60;86.00;;;;;;5032659;28;20057;-84
2021/03/28 05:32:54;;;;;;;11.80;2.80;;;7.60;86.00;;;;;;5031738;28;20034;-85
2021/03/28 05:35:38;;;;;;;11.67;2.57;;;7.50;85.90;;;;;;5031659;28;20026;-84
2021/03/28 05:38:16;;;;;;;10.47;2.40;;;7.50;86.10;;;;;;5031359;28;20107;-84
2021/03/28 05:41:01;;;;;;;13.80;2.63;;;7.60;86.00;;;;;;5032856;28;20025;-85
2021/03/28 05:43:32;;;;;;;8.97;2.33;;;7.50;86.20;;;;;;5031665;28;20371;-85
2021/03/28 05:46:22;;;;;;;8.43;2.70;;;7.60;86.10;;;;;;5031806;28;20034;-84
2021/03/28 05:49:10;;;;;;;9.80;2.20;;;7.50;86.30;;;;;;5032815;28;20087;-84
2021/03/28 05:51:49;;;;;;;11.00;2.10;;;7.60;86.40;;;;;;5031634;28;20026;-85
2021/03/28 05:54:40;;;;;;;9.05;2.22;;;7.60;86.10;;;;;;5032167;28;20083;-84
2021/03/28 05:57:27;;;;;;;8.10;2.23;;;7.60;86.10;;;;;;5031510;28;20061;-84
2021/03/28 06:00:10;;;;;;;9.10;2.00;;;7.60;86.10;;;;;;5032868;28;20486;-84
2021/03/28 06:03:00;;;;;;;12.23;2.53;;;7.60;86.00;;;;;;5031522;28;20017;-84
2021/03/28 06:06:03;;;;;;;12.60;2.40;;;7.60;86.00;;;;;;5033009;28;20018;-85
2021/03/28 06:19:37;;;;;;;11.83;4.23;;;7.70;86.10;;;;;;4994854;28;20135;-84
2021/03/28 06:22:46;;;;;;;6.83;2.10;;;7.80;86.20;;;;;;5013692;28;20037;-85
2021/03/28 06:25:46;;;;;;;9.83;2.37;;;7.80;86.10;;;;;;5036441;28;20052;-84
2021/03/28 06:28:46;;;;;;;12.70;2.97;;;7.80;86.00;;;;;;5034911;28;20087;-84
2021/03/28 06:31:32;;;;;;;11.13;2.93;;;7.80;86.20;;;;;;5035342;28;20029;-85
2021/03/28 06:34:31;;;;;;;7.97;2.10;;;7.90;86.90;;;;;;5036034;28;20038;-84
2021/03/28 06:40:54;;;;;;;9.17;2.20;;;7.90;86.30;;;;;;4994582;28;20509;-84
2021/03/28 06:44:27;;;;;;;7.07;2.80;;;7.90;86.30;;;;;;4917441;29;20024;-84
2021/03/28 07:00:50;;;;;;;9.80;2.20;;;8.00;86.20;;;;;;4917575;29;20045;-86
2021/03/28 07:03:45;;;;;;;7.37;2.00;;;8.00;86.30;;;;;;4958101;28;20022;-84
2021/03/28 07:06:32;;;;;;;11.20;2.10;;;8.00;86.30;;;;;;5036150;28;20512;-84
2021/03/28 07:09:16;;;;;;;7.37;1.73;;;8.10;86.40;;;;;;5035426;28;20041;-84
2021/03/28 07:12:29;;;;;;;8.60;1.93;;;8.10;86.60;;;;;;5035575;28;20037;-84
2021/03/28 07:15:19;;;;;;;6.20;1.80;;;8.10;86.90;;;;;;4977372;28;20124;-84
2021/03/28 07:18:16;;;;;;;6.57;1.90;;;8.10;86.80;;;;;;5048110;28;20128;-84
2021/03/28 07:21:18;;;;;;;9.63;2.07;;;8.10;86.80;;;;;;5033700;28;20026;-83
2021/03/28 07:24:21;;;;;;;8.97;1.80;;;8.20;86.80;;;;;;5034850;28;20548;-85
2021/03/28 07:26:57;;;;;;;8.03;1.80;;;8.20;86.80;;;;;;5058387;22;20040;-82
2021/03/28 07:29:55;;;;;;;8.90;2.10;;;8.30;86.80;;;;;;5041104;28;20044;-82
2021/03/28 07:32:36;;;;;;;8.90;2.00;;;8.30;86.80;;;;;;5042240;28;20396;-82
2021/03/28 07:35:11;;;;;;;12.07;2.03;;;8.30;86.70;;;;;;5038285;28;20509;-84
2021/03/28 07:38:14;;;;;;;8.40;1.90;;;8.30;86.70;;;;;;5038383;28;20409;-82
2021/03/28 07:41:00;;;;;;;8.37;1.90;;;8.40;87.00;;;;;;5037611;28;20025;-83
2021/03/28 07:43:45;;;;;;;10.67;2.10;;;8.40;86.80;;;;;;5038975;28;20142;-84
2021/03/28 07:46:46;;;;;;;10.87;2.23;;;8.40;86.90;;;;;;5039227;28;20090;-82
2021/03/28 07:49:30;;;;;;;7.33;1.80;;;8.50;86.60;;;;;;5056548;28;20112;-83
2021/03/28 07:52:02;;;;;;;6.83;2.07;;;8.50;86.80;;;;;;5037211;28;20751;-83
2021/03/28 07:54:33;;;;;;;7.47;2.27;;;8.60;86.70;;;;;;5037592;28;20036;-84
2021/03/28 07:57:49;;;;;;;13.90;2.93;;;8.60;86.70;;;;;;5058133;28;20032;-83
2021/03/28 08:00:55;;;;;;;8.97;2.27;;;8.60;86.60;;;;;;4973126;28;20031;-83
2021/03/28 08:03:43;;;;;;;6.93;2.03;;;8.70;86.50;;;;;;5036958;28;20067;-83
2021/03/28 08:06:39;;;;;;;6.90;1.60;;;8.80;86.70;;;;;;5055326;28;20035;-83
2021/03/28 08:09:33;;;;;;;10.90;2.50;;;8.80;86.10;;;;;;5036727;28;20025;-84
2021/03/28 08:12:17;;;;;;;9.33;1.90;;;8.90;86.30;;;;;;5037782;28;20037;-83
2021/03/28 08:14:58;;;;;;;10.83;1.97;;;8.90;86.20;;;;;;5037288;28;20033;-82
2021/03/28 08:17:44;;;;;;;8.90;1.97;;;9.00;86.20;;;;;;5053155;28;20111;-82
2021/03/28 08:20:15;;;;;;;8.77;2.13;;;9.00;86.10;;;;;;5034443;28;20158;-82
2021/03/28 08:23:26;;;;;;;9.17;2.07;;;9.10;86.30;;;;;;5053154;28;20032;-83
2021/03/28 08:26:15;;;;;;;9.00;1.77;;;9.10;86.10;;;;;;5022173;28;20080;-82
2021/03/28 08:28:59;;;;;;;11.67;2.10;;;9.20;86.30;;;;;;5052825;28;20025;-83
2021/03/28 08:31:55;;;;;;;11.63;2.90;;;9.20;85.80;;;;;;5035094;28;20033;-83
2021/03/28 08:35:03;;;;;;;7.07;1.97;;;9.30;86.20;;;;;;5024559;28;20033;-82
2021/03/28 08:37:48;;;;;;;9.30;2.10;;;9.30;86.20;;;;;;5035261;28;20047;-82
2021/03/28 08:40:20;;;;;;;10.43;2.07;;;9.40;86.10;;;;;;5036335;28;20106;-82
2021/03/28 08:42:52;;;;;;;11.63;1.97;;;9.40;85.80;;;;;;5036793;28;20159;-83
2021/03/28 08:45:26;;;;;;;9.50;2.23;;;9.50;86.10;;;;;;5037130;28;20024;-83
2021/03/28 08:48:10;;;;;;;8.73;2.70;;;9.50;85.90;;;;;;5036249;28;20116;-82
2021/03/28 08:51:08;;;;;;;10.50;2.37;;;9.50;85.90;;;;;;5036703;28;20205;-84
2021/03/28 08:53:58;;;;;;;7.37;2.03;;;9.50;86.20;;;;;;5037460;28;20394;-85
2021/03/28 08:56:52;;;;;;;9.93;2.60;;;9.60;86.30;;;;;;5056289;28;20033;-83
2021/03/28 08:59:38;;;;;;;8.27;2.30;;;9.60;86.50;;;;;;5037255;28;20089;-84
2021/03/28 09:02:07;;;;;;;14.13;2.60;;;9.70;86.70;;;;;;5055843;28;20020;-82
2021/03/28 09:04:49;;;;;;;10.20;2.22;;;9.80;86.70;;;;;;5056076;28;20059;-84
2021/03/28 09:07:40;;;;;;;12.63;2.53;;;9.90;86.50;;;;;;5038047;28;20052;-84
2021/03/28 09:10:24;;;;;;;15.07;2.30;;;9.90;86.70;;;;;;5037226;28;20049;-83
2021/03/28 09:12:53;;;;;;;10.80;2.50;;;10.00;86.40;;;;;;5038475;28;20032;-83
2021/03/28 09:15:53;;;;;;;12.10;2.50;;;10.10;85.90;;;;;;5038796;28;20029;-84
2021/03/28 09:18:39;;;;;;;12.30;2.83;;;10.20;85.60;;;;;;5038503;28;20033;-84
2021/03/28 09:21:35;;;;;;;10.13;2.80;;;10.30;85.70;;;;;;5055321;28;20465;-84
2021/03/28 09:24:38;;;;;;;10.20;2.20;;;10.40;81.60;;;;;;5056352;28;20046;-84
2021/03/28 09:27:36;;;;;;;14.30;3.60;;;10.50;81.20;;;;;;5036807;28;20515;-84
2021/03/28 09:30:21;;;;;;;12.57;2.60;;;10.70;78.60;;;;;;5036860;28;20025;-84
2021/03/28 09:33:24;;;;;;;9.33;2.73;;;10.90;77.80;;;;;;5054788;28;20025;-84
2021/03/28 09:36:03;;;;;;;12.57;2.63;;;10.90;76.30;;;;;;5040287;28;20035;-84
2021/03/28 09:38:41;;;;;;;11.03;2.60;;;10.90;76.60;;;;;;5058363;28;20392;-82
2021/03/28 09:41:09;;;;;;;10.43;2.80;;;11.00;75.80;;;;;;5058496;28;20256;-82
2021/03/28 09:43:55;;;;;;;10.82;2.38;;;11.10;73.90;;;;;;5040936;28;20064;-82
2021/03/28 09:46:32;;;;;;;8.70;2.27;;;11.10;73.50;;;;;;5045413;28;20017;-82
2021/03/28 09:49:17;;;;;;;12.30;2.73;;;11.30;73.00;;;;;;5044065;28;20507;-82
2021/03/28 09:51:48;;;;;;;13.90;5.57;;;11.20;72.80;;;;;;5044657;28;20044;-82
2021/03/28 09:54:41;;;;;;;9.77;3.00;;;11.30;73.70;;;;;;5044207;28;20032;-82
2021/03/28 09:57:44;;;;;;;12.23;3.17;;;11.20;72.70;;;;;;5059960;28;20052;-81
2021/03/28 10:00:35;;;;;;;8.90;2.40;;;11.20;72.40;;;;;;5041344;28;20035;-82
2021/03/28 10:03:11;;;;;;;10.70;3.77;;;11.20;72.80;;;;;;5042887;28;20021;-82
2021/03/28 10:05:38;;;;;;;15.53;4.07;;;11.30;73.70;;;;;;5060985;28;20048;-82
2021/03/28 10:08:11;;;;;;;12.37;4.43;;;11.40;73.70;;;;;;5041717;28;20436;-82
2021/03/28 10:11:01;;;;;;;15.67;4.20;;;11.40;72.00;;;;;;5060343;28;20032;-82
2021/03/28 10:13:51;;;;;;;9.07;2.83;;;11.40;71.80;;;;;;5061742;28;20031;-82
2021/03/28 10:16:22;;;;;;;11.83;2.90;;;11.50;70.90;;;;;;5042889;28;20064;-82
2021/03/28 10:19:05;;;;;;;10.37;2.13;;;11.50;70.00;;;;;;5060407;28;20036;-82
2021/03/28 10:21:59;;;;;;;12.37;3.10;;;11.70;69.20;;;;;;5042254;28;20539;-82
2021/03/28 10:24:36;;;;;;;10.00;2.53;;;11.70;70.20;;;;;;5042969;28;20230;-82
2021/03/28 10:27:51;;;;;;;13.13;2.07;;;11.70;69.30;;;;;;5060089;28;20104;-82
2021/03/28 10:30:28;;;;;;;9.27;1.97;;;11.70;68.60;;;;;;5041104;28;20024;-83
2021/03/28 10:33:12;;;;;;;8.47;1.47;;;11.80;68.00;;;;;;5040802;28;20032;-82
2021/03/28 10:36:21;;;;;;;10.57;1.87;;;11.90;66.00;;;;;;5039804;28;20055;-82
2021/03/28 10:39:12;;;;;;;11.00;2.73;;;11.90;67.00;;;;;;5059271;28;20029;-83
2021/03/28 10:41:40;;;;;;;11.90;2.10;;;11.90;66.40;;;;;;5060418;28;20096;-82
2021/03/28 10:44:24;;;;;;;7.20;1.97;;;12.00;66.20;;;;;;5059727;28;20032;-82
2021/03/28 10:47:24;;;;;;;8.27;1.80;;;12.10;65.50;;;;;;5040478;28;20025;-82
2021/03/28 10:50:45;;;;;;;8.37;1.83;;;12.00;64.20;;;;;;5041584;28;20029;-82
2021/03/28 10:53:23;;;;;;;8.67;1.63;;;12.20;62.10;;;;;;5001282;28;20487;-82
2021/03/28 10:56:05;;;;;;;7.77;2.00;;;12.10;62.30;;;;;;5042462;28;20036;-82
2021/03/28 10:58:42;;;;;;;9.07;2.03;;;12.10;63.70;;;;;;5045930;28;20112;-82
2021/03/28 11:01:49;;;;;;;6.47;1.80;;;12.10;64.50;;;;;;5061592;28;20095;-82
2021/03/28 11:04:36;;;;;;;9.57;1.87;;;12.10;66.20;;;;;;5051137;28;20093;-82
2021/03/28 11:07:44;;;;;;;10.43;2.20;;;12.10;65.30;;;;;;5044366;28;20029;-82
2021/03/28 11:10:31;;;;;;;8.30;1.93;;;12.10;65.30;;;;;;5062382;28;20389;-82
2021/03/28 11:12:59;;;;;;;11.27;2.37;;;12.10;66.00;;;;;;5045097;28;20036;-82
2021/03/28 11:16:03;;;;;;;7.15;2.10;;;12.10;66.30;;;;;;5045517;28;20212;-82
2021/03/28 11:18:43;;;;;;;7.80;1.80;;;12.20;65.90;;;;;;5044844;28;20033;-82
2021/03/28 11:21:37;;;;;;;7.73;2.10;;;12.20;66.00;;;;;;5062915;28;20029;-82
2021/03/28 11:24:09;;;;;;;12.00;2.77;;;12.30;66.30;;;;;;5045061;28;20025;-83
2021/03/28 11:27:03;;;;;;;8.27;2.10;;;12.30;66.10;;;;;;5046276;28;20020;-83
2021/03/28 11:29:55;;;;;;;11.33;2.40;;;12.40;66.00;;;;;;5062740;28;20028;-82
2021/03/28 11:32:29;;;;;;;7.17;2.17;;;12.50;65.70;;;;;;5045491;28;20088;-82
2021/03/28 11:35:10;;;;;;;7.63;1.97;;;12.40;65.30;;;;;;5044887;28;20031;-83
2021/03/28 11:37:54;;;;;;;8.83;2.00;;;12.40;65.00;;;;;;5044436;28;20050;-82
2021/03/28 11:40:34;;;;;;;7.33;1.83;;;12.40;62.60;;;;;;5063005;28;20603;-82
2021/03/28 11:43:06;;;;;;;10.30;1.77;;;12.50;61.70;;;;;;5044981;28;20040;-82
2021/03/28 11:45:48;;;;;;;10.47;1.70;;;12.40;61.30;;;;;;5043168;28;20024;-82
2021/03/28 11:48:28;;;;;;;10.40;2.33;;;12.40;62.00;;;;;;5060075;28;20080;-82
2021/03/28 11:50:59;;;;;;;9.43;1.83;;;12.40;62.20;;;;;;5060693;28;20045;-83
2021/03/28 11:53:24;;;;;;;10.73;2.13;;;12.40;62.50;;;;;;5044231;28;20139;-83
2021/03/28 11:55:54;;;;;;;9.00;2.13;;;12.40;62.10;;;;;;5044408;28;20056;-82
2021/03/28 11:58:26;;;;;;;7.83;1.90;;;12.40;63.20;;;;;;5044791;28;20025;-82
2021/03/28 12:00:59;;;;;;;8.93;1.70;;;12.50;63.70;;;;;;5044760;28;20044;-83
2021/03/28 12:03:28;;;;;;;9.50;2.13;;;12.60;63.70;;;;;;5044515;28;20021;-82
2021/03/28 12:05:55;;;;;;;6.63;1.50;;;12.60;62.40;;;;;;5044726;28;20025;-83
2021/03/28 12:08:25;;;;;;;7.00;1.73;;;12.60;61.10;;;;;;5044490;28;20029;-82
2021/03/28 12:10:52;;;;;;;10.73;2.20;;;12.60;61.70;;;;;;5043712;28;20504;-83
2021/03/28 12:13:26;;;;;;;9.13;1.80;;;12.60;61.70;;;;;;5042011;28;20032;-83
2021/03/28 12:15:52;;;;;;;12.20;2.03;;;12.70;61.20;;;;;;5040969;28;20021;-82
2021/03/28 12:18:25;;;;;;;7.23;1.73;;;12.60;62.10;;;;;;5042495;28;20236;-83
2021/03/28 12:21:02;;;;;;;6.57;2.00;;;12.70;61.10;;;;;;5041968;28;20107;-83
2021/03/28 12:23:37;;;;;;;9.27;1.70;;;12.70;60.40;;;;;;5058939;28;20017;-82
2021/03/28 12:26:17;;;;;;;6.93;1.70;;;12.70;60.00;;;;;;5041306;28;20473;-82
2021/03/28 12:28:46;;;;;;;9.97;1.90;;;12.80;60.20;;;;;;5040524;28;20065;-83
2021/03/28 12:31:32;;;;;;;8.63;1.40;;;12.80;59.90;;;;;;5040250;28;20036;-82
2021/03/28 12:34:31;;;;;;;10.87;1.87;;;12.80;57.40;;;;;;5039351;28;20486;-82
2021/03/28 12:37:12;;;;;;;5.60;1.70;;;12.80;58.00;;;;;;5039133;28;20021;-82
2021/03/28 12:39:58;;;;;;;7.57;1.53;;;12.80;59.40;;;;;;5039173;28;20107;-82
2021/03/28 12:42:45;;;;;;;6.03;1.47;;;12.90;59.10;;;;;;5058720;28;20159;-83
2021/03/28 12:45:11;;;;;;;9.50;2.57;;;12.90;58.60;;;;;;5038044;28;20103;-82
2021/03/28 12:47:49;;;;;;;8.77;2.13;;;12.80;58.10;;;;;;5038963;28;20490;-82
2021/03/28 12:50:14;;;;;;;7.43;1.73;;;12.80;58.50;;;;;;5038629;28;20024;-82
2021/03/28 12:53:01;;;;;;;5.97;1.90;;;12.80;58.90;;;;;;5038964;28;20386;-82
2021/03/28 12:55:29;;;;;;;8.60;2.43;;;12.80;58.80;;;;;;5040253;28;20112;-83
2021/03/28 12:58:07;;;;;;;13.93;2.35;;;12.80;59.00;;;;;;5057054;28;20032;-82
2021/03/28 13:00:49;;;;;;;7.47;1.97;;;12.80;59.10;;;;;;5056459;28;20021;-82
2021/03/28 13:03:26;;;;;;;7.90;1.90;;;12.80;59.10;;;;;;5040373;28;20031;-82
2021/03/28 13:06:31;;;;;;;9.80;1.90;;;12.80;58.20;;;;;;5039874;28;20112;-82
2021/03/28 13:09:02;;;;;;;7.63;1.37;;;12.80;57.90;;;;;;5041520;28;20021;-83
2021/03/28 13:11:36;;;;;;;7.33;1.67;;;12.90;57.40;;;;;;5058901;28;20071;-83
2021/03/28 13:14:03;;;;;;;7.77;2.10;;;12.90;57.70;;;;;;5058427;28;20028;-82
2021/03/28 13:16:32;;;;;;;5.07;1.50;;;12.90;57.80;;;;;;5039849;28;20024;-83
2021/03/28 13:18:59;;;;;;;7.70;2.03;;;13.00;58.50;;;;;;5041276;28;20063;-84
2021/03/28 13:21:38;;;;;;;7.80;1.73;;;13.00;57.60;;;;;;5042229;28;20021;-84
2021/03/28 13:24:13;;;;;;;9.93;2.80;;;13.00;58.20;;;;;;5042455;28;20052;-84
2021/03/28 13:27:04;;;;;;;8.37;1.80;;;13.00;57.70;;;;;;5039485;28;20029;-83
2021/03/28 13:30:50;;;;;;;14.90;2.13;;;13.00;57.50;;;;;;5074308;22;20049;-85
2021/03/28 13:51:42;;;;;;;7.63;2.20;;;13.00;59.30;;;;;;4970478;28;20566;-85
2021/03/28 13:54:28;;;;;;;9.90;2.00;;;13.00;58.10;;;;;;4970921;28;20027;-85
2021/03/28 13:56:57;;;;;;;9.07;1.60;;;13.00;57.50;;;;;;4970878;28;20037;-85
2021/03/28 13:59:29;;;;;;;11.30;2.47;;;12.90;56.70;;;;;;4970353;28;20022;-84
2021/03/28 14:02:10;;;;;;;7.93;1.70;;;12.90;56.70;;;;;;5014148;28;20103;-86
2021/03/28 14:04:38;;;;;;;6.60;1.63;;;12.90;57.40;;;;;;5031843;28;20075;-85
2021/03/28 14:07:13;;;;;;;6.70;1.70;;;12.90;57.10;;;;;;5014344;28;20116;-85
2021/03/28 14:09:52;;;;;;;6.70;1.30;;;12.90;57.50;;;;;;5031289;28;20030;-86
2021/03/28 14:12:30;;;;;;;7.88;1.73;;;12.90;57.70;;;;;;5014054;28;20032;-85
2021/03/28 14:15:28;;;;;;;9.18;1.83;;;12.90;57.40;;;;;;5014033;28;20033;-85
2021/03/28 14:18:00;;;;;;;6.23;1.77;;;12.80;58.00;;;;;;5013012;28;20124;-85
2021/03/28 14:20:43;;;;;;;6.83;1.73;;;12.90;57.40;;;;;;5013319;28;20045;-85
2021/03/28 14:23:23;;;;;;;7.63;1.70;;;12.80;57.50;;;;;;5031618;28;20025;-86
2021/03/28 14:25:51;;;;;;;7.43;1.70;;;12.80;58.10;;;;;;5013851;28;20439;-85
2021/03/28 14:28:25;;;;;;;6.07;1.63;;;12.90;57.60;;;;;;5013751;28;20029;-86
2021/03/28 14:31:35;;;;;;;8.23;1.43;;;12.90;57.00;;;;;;5015535;28;20109;-85
2021/03/28 14:34:06;;;;;;;7.43;1.93;;;12.90;57.20;;;;;;5017510;28;20461;-84
2021/03/28 14:36:54;;;;;;;5.30;1.40;;;12.90;56.80;;;;;;5017925;28;20389;-86
2021/03/28 14:40:01;;;;;;;9.37;1.90;;;12.90;57.00;;;;;;5033406;28;20051;-86
2021/03/28 14:42:31;;;;;;;7.57;1.90;;;12.90;57.80;;;;;;5017557;28;20022;-85
2021/03/28 14:44:59;;;;;;;7.90;1.80;;;12.80;57.30;;;;;;5017182;28;20108;-85
2021/03/28 14:47:40;;;;;;;9.35;1.75;;;12.80;57.00;;;;;;5017179;28;20026;-85
2021/03/28 14:50:37;;;;;;;5.87;1.30;;;12.80;57.50;;;;;;5016735;28;20037;-85
2021/03/28 14:53:12;;;;;;;7.10;2.07;;;12.80;58.20;;;;;;5017055;28;20112;-85
2021/03/28 14:56:04;;;;;;;6.67;1.77;;;12.80;58.60;;;;;;5017035;28;20022;-85
2021/03/28 14:59:12;;;;;;;5.30;1.83;;;12.70;58.90;;;;;;5034637;28;20026;-85
2021/03/28 15:01:53;;;;;;;7.93;2.27;;;12.70;59.00;;;;;;5034619;28;20018;-85
2021/03/28 15:04:53;;;;;;;7.23;1.83;;;12.70;59.10;;;;;;5016861;28;20437;-85
2021/03/28 15:07:36;;;;;;;6.43;1.30;;;12.70;59.00;;;;;;5033268;28;20565;-85